EGHH METAR and TAF | Updated Today

EGHH METAR

Bournemouth Airport

Observation time: 18 min. ago

EGHH 061850Z 00000KT 9999 MIFG NSC 00/M01 Q1039

Need help? Read our tutorial on how to read METARs or read the parsed version below.

Bournemouth Airport (EGHH) METAR

  • Weather conditions on Mon, 06 Feb 2023 18:50:00 +0000 (18 min. ago):
  • Present conditions: Shallow fog
  • Clouds: No significant clouds are observed
  • Visibility: Greater than 10 km
  • Wind: Calm
  • Temperature: 0 celsius
  • Dew point: -1 celsius
  • Pressure: 1039 millibars
  • Remarks: None


Useful to know...

EGHH TAF

Bournemouth Airport

TAF EGHH 061658Z 0618/0622 VRB03KT CAVOK BECMG 0618/0621 6000 TEMPO 0618/0622 4000 BR PROB30 0620/0622 0300 FZFG VV///
Observation time: 2:10 hr. ago
Need help? Read our tutorial on how to read TAFs or read the parsed version below.

Parsed version of TAF for Bournemouth Airport (EGHH)

  • From 06 February at 18:00 UTC, to day 06 of the month at 22:00 UTC
  • Visibility: Greater than 10 km
  • Wind: Variable at 3
  • Expected to arise soon, from 06 February at 18:00 UTC, to day 06 of the month at 21:00 UTC
  • Visibility: 6000 meters
  • Expected to arise temporarily, from 06 February at 18:00 UTC, to day 06 of the month at 22:00 UTC
  • Visibility: 4000 meters
  • Other: Mist
  • From 06 February at 20:00 UTC, to day 06 of the month at 22:00 UTC
    Probability of 30%
  • Clouds: Vertical visibility
  • Visibility: 300 meters
  • Other: Freezing fog